createdAt,value
2022-12-08T00:00:10.010Z,100.00
2022-12-08T00:05:11.506Z,100.00
2022-12-08T00:10:40.267Z,100.00
2022-12-08T00:15:34.325Z,100.00
2022-12-08T00:20:35.762Z,100.00
2022-12-08T00:25:37.237Z,100.00
2022-12-08T00:30:43.039Z,100.00
2022-12-08T00:35:44.475Z,100.00
2022-12-08T00:40:47.400Z,100.00
2022-12-08T00:45:48.895Z,100.00
2022-12-08T00:50:50.420Z,100.00
2022-12-08T00:55:51.874Z,100.00
2022-12-08T01:00:53.401Z,100.00
2022-12-08T01:05:54.811Z,100.00
2022-12-08T01:10:56.276Z,100.00
2022-12-08T01:15:57.792Z,100.00
2022-12-08T01:21:04.839Z,100.00
2022-12-08T01:26:08.688Z,100.00
2022-12-08T01:31:20.050Z,100.00
2022-12-08T01:36:25.096Z,100.00
2022-12-08T01:41:29.442Z,100.00
2022-12-08T01:46:33.258Z,100.00
2022-12-08T01:51:42.229Z,100.00
2022-12-08T01:56:55.260Z,100.00
2022-12-08T02:01:57.950Z,100.00
2022-12-08T02:07:03.601Z,100.00
2022-12-08T02:12:09.383Z,100.00
2022-12-08T02:17:13.698Z,100.00
2022-12-08T02:22:24.229Z,100.00
2022-12-08T02:28:01.450Z,100.00
2022-12-08T02:33:41.842Z,100.00
2022-12-08T02:39:24.914Z,100.00
2022-12-08T02:44:33.696Z,100.00
2022-12-08T02:49:36.375Z,100.00
2022-12-08T02:54:41.558Z,100.00
2022-12-08T03:00:07.110Z,100.00
2022-12-08T03:05:38.771Z,100.00
2022-12-08T03:10:51.330Z,100.00
2022-12-08T03:15:54.839Z,100.00
2022-12-08T03:20:56.319Z,100.00
2022-12-08T03:26:08.452Z,100.00
2022-12-08T03:31:12.947Z,100.00
2022-12-08T03:36:15.247Z,100.00
2022-12-08T03:41:16.687Z,100.00
2022-12-08T03:51:22.224Z,100.00
2022-12-08T03:56:32.989Z,100.00
2022-12-08T04:01:34.618Z,100.00
2022-12-08T04:06:36.144Z,100.00
2022-12-08T04:11:37.667Z,100.00
2022-12-08T04:16:42.184Z,100.00
2022-12-08T04:21:43.920Z,100.00
2022-12-08T04:26:45.435Z,100.00
2022-12-08T04:31:47.052Z,100.00
2022-12-08T04:36:48.529Z,100.00
2022-12-08T04:41:49.916Z,100.00
2022-12-08T04:46:51.439Z,100.00
2022-12-08T04:51:53.001Z,100.00
2022-12-08T04:56:54.616Z,100.00
2022-12-08T05:01:56.211Z,100.00
2022-12-08T05:06:57.925Z,100.00
2022-12-08T05:11:59.349Z,100.00
2022-12-08T05:17:04.839Z,100.00
2022-12-08T05:22:09.439Z,100.00
2022-12-08T05:27:10.996Z,100.00
2022-12-08T05:32:12.455Z,100.00
2022-12-08T05:37:14.054Z,100.00
2022-12-08T05:42:17.436Z,100.00
2022-12-08T05:47:21.982Z,100.00
2022-12-08T05:52:23.536Z,100.00
2022-12-08T05:57:25.202Z,100.00
2022-12-08T06:02:27.003Z,100.00
2022-12-08T06:07:28.636Z,100.00
2022-12-08T06:12:30.316Z,100.00
2022-12-08T06:17:31.766Z,100.00
2022-12-08T06:22:33.278Z,100.00
2022-12-08T06:27:34.831Z,100.00
2022-12-08T06:32:36.775Z,100.00
2022-12-08T06:37:38.409Z,100.00
2022-12-08T06:42:39.848Z,100.00
2022-12-08T06:47:41.523Z,100.00
2022-12-08T06:52:54.326Z,100.00
2022-12-08T06:58:02.353Z,100.00
2022-12-08T07:03:03.928Z,100.00
2022-12-08T07:08:09.718Z,100.00
2022-12-08T07:13:11.247Z,100.00
2022-12-08T07:18:12.801Z,100.00
2022-12-08T07:23:14.705Z,100.00
2022-12-08T07:28:16.264Z,100.00
2022-12-08T07:33:17.732Z,100.00
2022-12-08T07:38:19.200Z,100.00
2022-12-08T07:43:22.244Z,100.00
2022-12-08T07:48:23.662Z,100.00
2022-12-08T07:53:25.107Z,100.00
2022-12-08T07:58:27.665Z,100.00
2022-12-08T08:03:29.197Z,100.00
2022-12-08T08:08:31.778Z,100.00
2022-12-08T08:13:33.365Z,100.00
2022-12-08T08:18:36.116Z,100.00
2022-12-08T08:23:37.589Z,100.00
2022-12-08T08:28:39.213Z,100.00
2022-12-08T08:33:40.762Z,100.00
2022-12-08T08:38:42.232Z,100.00
2022-12-08T08:43:43.739Z,100.00
2022-12-08T08:48:45.348Z,100.00
2022-12-08T08:53:46.858Z,100.00
2022-12-08T08:58:52.971Z,100.00
2022-12-08T09:03:55.410Z,100.00
2022-12-08T09:08:57.084Z,100.00
2022-12-08T09:13:58.545Z,100.00
2022-12-08T09:19:00.100Z,100.00
2022-12-08T09:24:01.554Z,100.00
2022-12-08T09:29:03.076Z,100.00
2022-12-08T09:34:04.877Z,100.00
2022-12-08T09:39:07.252Z,100.00
2022-12-08T09:44:39.448Z,100.00
2022-12-08T09:49:45.620Z,100.00
2022-12-08T09:54:47.246Z,100.00
2022-12-08T09:59:55.495Z,100.00
2022-12-08T10:04:58.885Z,100.00
2022-12-08T10:10:22.800Z,100.00
2022-12-08T10:15:30.405Z,100.00
2022-12-08T10:20:41.591Z,100.00
2022-12-08T10:25:54.309Z,100.00
2022-12-08T10:30:55.945Z,100.00
2022-12-08T10:35:59.412Z,100.00
2022-12-08T10:41:06.549Z,100.00
2022-12-08T10:46:21.493Z,97.62
2022-12-08T10:51:36.489Z,98.90
2022-12-08T10:56:52.866Z,98.69
2022-12-08T11:01:56.562Z,99.50
2022-12-08T11:06:58.169Z,96.73
2022-12-08T11:12:07.160Z,97.26
2022-12-08T11:17:16.433Z,95.00
2022-12-08T11:22:57.403Z,96.61
2022-12-08T11:28:01.233Z,92.56
2022-12-08T11:33:38.116Z,90.32
2022-12-08T11:38:44.114Z,91.41
2022-12-08T11:43:58.596Z,90.48
2022-12-08T11:49:06.761Z,90.19
2022-12-08T11:54:25.211Z,92.40
2022-12-08T11:59:32.147Z,91.51
2022-12-08T12:04:56.584Z,87.15
2022-12-08T12:10:10.625Z,87.05
2022-12-08T12:15:33.069Z,87.70
2022-12-08T12:20:50.928Z,88.86
2022-12-08T12:25:59.700Z,91.77
2022-12-08T12:31:06.379Z,91.49
2022-12-08T12:36:10.600Z,88.50
2022-12-08T12:41:14.594Z,88.37
2022-12-08T12:46:25.388Z,89.82
2022-12-08T12:51:39.185Z,86.66
2022-12-08T12:56:54.905Z,87.34
2022-12-08T13:01:56.968Z,88.96
2022-12-08T13:06:59.205Z,89.94
2022-12-08T13:12:12.356Z,89.62
2022-12-08T13:17:27.406Z,88.66
2022-12-08T13:22:53.893Z,88.91
2022-12-08T13:27:55.377Z,86.11
2022-12-08T13:33:18.254Z,86.79
2022-12-08T13:38:26.282Z,88.29
2022-12-08T13:44:31.192Z,86.09
2022-12-08T14:00:15.030Z,86.71
2022-12-08T14:05:34.865Z,85.01
2022-12-08T14:10:40.985Z,88.68
2022-12-08T14:15:42.597Z,88.29
2022-12-08T14:21:19.016Z,93.80
2022-12-08T14:26:06.328Z,91.80
2022-12-08T14:31:08.443Z,92.70
2022-12-08T14:36:11.112Z,93.10
2022-12-08T14:41:12.576Z,95.31
2022-12-08T14:46:22.566Z,99.35
2022-12-08T14:51:30.365Z,100.00
2022-12-08T14:56:33.755Z,100.00
2022-12-08T15:01:37.046Z,100.00
2022-12-08T15:07:06.501Z,100.00
2022-12-08T15:12:14.052Z,100.00
2022-12-08T15:17:49.419Z,100.00
2022-12-08T15:22:51.772Z,100.00
2022-12-08T15:27:53.352Z,98.61
2022-12-08T15:32:54.830Z,100.00
2022-12-08T15:37:56.714Z,100.00
2022-12-08T15:42:58.211Z,100.00
2022-12-08T15:47:59.715Z,100.00
2022-12-08T15:53:01.283Z,100.00
2022-12-08T15:58:52.452Z,100.00
2022-12-08T16:09:00.698Z,100.00
2022-12-08T16:14:47.413Z,100.00
2022-12-08T16:19:33.800Z,100.00
2022-12-08T16:24:35.294Z,100.00
2022-12-08T16:29:36.679Z,100.00
2022-12-08T16:34:38.242Z,100.00
2022-12-08T16:39:45.421Z,100.00
2022-12-08T16:44:47.288Z,100.00
2022-12-08T16:49:48.720Z,100.00
2022-12-08T16:54:50.136Z,100.00
2022-12-08T16:59:51.686Z,100.00
2022-12-08T17:04:53.198Z,100.00
2022-12-08T17:09:54.867Z,100.00
2022-12-08T17:14:56.299Z,100.00
2022-12-08T17:19:57.832Z,100.00
2022-12-08T17:25:00.188Z,100.00
2022-12-08T17:30:01.681Z,100.00
2022-12-08T17:35:03.886Z,100.00
2022-12-08T17:40:06.556Z,100.00
2022-12-08T17:45:09.043Z,100.00
2022-12-08T17:50:10.681Z,100.00
2022-12-08T17:55:12.164Z,100.00
2022-12-08T18:00:14.120Z,100.00
2022-12-08T18:05:15.644Z,100.00
2022-12-08T18:10:18.092Z,100.00
2022-12-08T18:15:20.378Z,100.00
2022-12-08T18:20:22.036Z,100.00
2022-12-08T18:25:23.497Z,99.36
2022-12-08T18:30:24.992Z,100.00
2022-12-08T18:35:26.475Z,100.00
2022-12-08T18:40:28.500Z,100.00
2022-12-08T18:45:29.972Z,100.00
2022-12-08T18:50:31.405Z,100.00
2022-12-08T18:55:32.908Z,100.00
2022-12-08T19:00:34.352Z,100.00
2022-12-08T19:05:35.853Z,100.00
2022-12-08T19:10:38.222Z,100.00
2022-12-08T19:15:39.724Z,100.00
2022-12-08T19:20:41.296Z,100.00
2022-12-08T19:25:42.747Z,100.00
2022-12-08T19:30:44.360Z,100.00
2022-12-08T19:35:52.068Z,100.00
2022-12-08T19:40:54.073Z,100.00
2022-12-08T19:45:55.723Z,100.00
2022-12-08T19:50:57.548Z,100.00
2022-12-08T19:55:59.070Z,100.00
2022-12-08T20:01:00.527Z,100.00
2022-12-08T20:06:02.029Z,100.00
2022-12-08T20:11:03.520Z,100.00
2022-12-08T20:16:05.440Z,100.00
2022-12-08T20:21:07.755Z,100.00
2022-12-08T20:26:13.152Z,100.00
2022-12-08T20:31:23.450Z,100.00
2022-12-08T20:36:25.050Z,100.00
2022-12-08T20:41:26.457Z,100.00
2022-12-08T20:46:27.980Z,100.00
2022-12-08T20:51:32.186Z,100.00
2022-12-08T20:56:33.865Z,100.00
2022-12-08T21:01:35.500Z,100.00
2022-12-08T21:06:36.992Z,100.00
2022-12-08T21:11:38.536Z,100.00
2022-12-08T21:16:40.251Z,100.00
2022-12-08T21:21:41.913Z,100.00
2022-12-08T21:26:43.646Z,100.00
2022-12-08T21:31:45.432Z,100.00
2022-12-08T21:36:47.011Z,100.00
2022-12-08T21:41:48.643Z,100.00
2022-12-08T21:46:50.343Z,100.00
2022-12-08T21:51:51.916Z,100.00
2022-12-08T21:56:53.515Z,100.00
2022-12-08T22:01:55.244Z,100.00
2022-12-08T22:06:57.124Z,100.00
2022-12-08T22:11:58.724Z,100.00
2022-12-08T22:17:00.325Z,100.00
2022-12-08T22:22:02.385Z,100.00
2022-12-08T22:27:03.968Z,100.00
2022-12-08T22:32:05.871Z,100.00
2022-12-08T22:37:07.356Z,100.00
2022-12-08T22:42:08.995Z,100.00
2022-12-08T22:47:10.511Z,100.00
2022-12-08T22:52:12.067Z,100.00
2022-12-08T22:57:13.585Z,100.00
2022-12-08T23:02:15.163Z,100.00
2022-12-08T23:07:16.748Z,100.00
2022-12-08T23:12:18.303Z,100.00
2022-12-08T23:17:19.751Z,100.00
2022-12-08T23:22:21.592Z,100.00
2022-12-08T23:27:23.349Z,100.00
2022-12-08T23:32:24.930Z,100.00
2022-12-08T23:37:28.502Z,100.00
2022-12-08T23:42:30.134Z,100.00
2022-12-08T23:47:31.664Z,100.00
2022-12-08T23:52:33.248Z,100.00
2022-12-08T23:57:35.817Z,100.00
